Mayport Ns (Adm David L. Mcdonald Field) Airport
KNRB : now visible

Airfield :











YOU CAN JOIN US ON...

 
LOGIN :

Register | Disclaimer

   EN    FR    IT 

 









Legend :    VFR   Marginal VFR   IFR   Intensive IFR   Very Intensive IFR
Visi :
Ceiling :
>= 8 km
>= 3000ft
5 to 8 km
1000 to 3000 ft
1500m to 5 km
500 to 1000 ft
800 to 1500m
200 to 500 ft
< 800m
< 200 ft
Symbols :   Thunderstorms  Fog  Heavy snow  Heavy precipitations  Wind > 20 kt






- Airport Elevation : 15 ft


KNRB - Mayport Ns (Adm David L. Mcdonald Field)

CURRENT METAR :
  • 170352Z AUTO 12012KT 10SM CLR 29/23 A3009 RMK AO2 SLP189 T02940228

EXPIRED METARs :
  • 170252Z AUTO 11013G19KT 10SM FEW023 29/23 A3009 RMK AO2 SLP189 T02940233 53009
  • 170152Z AUTO 12011KT 10SM CLR 29/23 A3008 RMK AO2 SLP186 T02940228
  • 170052Z AUTO 10011KT 10SM FEW024 30/23 A3007 RMK AO2 SLP182 T03000228
  • 170002Z AUTO 11015KT 10SM SCT023 30/23 A3006 RMK AO2 T03000233
  • 162352Z AUTO 11014KT 10SM BKN023 30/23 A3007 RMK AO2 SLP180 T03000233 10339 20300 53004

Expired Forecast.
KZJX FIR / North America



MET'MAP, your aeronautical weather chart ! - Copyright ORBIFLY December 2007 - Disclaimer

ORBIFLY MET'MAP TEAM :

Programming & Development : Alexandra Zaïnal
Original concept : Baudouin d'Aumeries
Technical & hardware support : Manuel Goepfert
Assistance : Marc-Olivier Méhu




SOURCES & CREDITS :

   NOAA       Earth
Advisory